^^
Saratoga-Weather Station Historical Data
Daily Summary for June 15, 2020 Units:  Metric    English   Both
Daily Weekly Monthly Yearly Custom
  High: Low: Average:
Temperature: 33.7 °C 14.6 °C 22.7 °C
Dew Point: 17.8 °C 12 °C 14.5 °C
Humidity: 86% 35% 63%
Wind Speed: 7.9km/h 0km/h 0.9km/h
Wind Gust: 11.3km/h - -
Wind- - ESE
Pressure: 1020.3 hPa 1016.3 hPa -
Precipitation: 0.0 mm    
Historical Graphs
 
 
Tabular Data for June 15, 2020
Time Temperature Dew Point Pressure Wind Wind Speed Wind Gust Humidity Rainfall Rate (Hourly) solar
00:00 18.2 °C 12.9 °C 1020.3 hPa Calm     71% 0.0 mm 0 W/m2
00:05 18.1 °C 12.8 °C 1020.3 hPa Calm     71% 0.0 mm 0 W/m2
00:10 18.1 °C 12.8 °C 1020.3 hPa Calm     71% 0.0 mm 0 W/m2
00:15 17.9 °C 12.6 °C 1020.3 hPa Calm     71% 0.0 mm 0 W/m2
00:20 17.9 °C 12.8 °C 1020.3 hPa Calm     72% 0.0 mm 0 W/m2
00:25 17.8 °C 12.7 °C 1020.3 hPa Calm     72% 0.0 mm 0 W/m2
00:30 17.8 °C 12.7 °C 1020.3 hPa Calm     72% 0.0 mm 0 W/m2
00:35 17.7 °C 12.6 °C 1020.3 hPa Calm     72% 0.0 mm 0 W/m2
00:40 17.7 °C 12.6 °C 1020.3 hPa Calm     72% 0.0 mm 0 W/m2
00:45 17.6 °C 12.7 °C 1020.3 hPa Calm     73% 0.0 mm 0 W/m2
00:50 17.6 °C 12.7 °C 1020.3 hPa Calm     73% 0.0 mm 0 W/m2
00:55 17.4 °C 12.5 °C 1020.3 hPa Calm     73% 0.0 mm 0 W/m2
01:00 17.4 °C 12.7 °C 1020.3 hPa Calm     74% 0.0 mm 0 W/m2
01:05 17.4 °C 12.7 °C 1020.3 hPa Calm     74% 0.0 mm 0 W/m2
01:10 17.3 °C 12.6 °C 1020.3 hPa Calm     74% 0.0 mm 0 W/m2
01:15 17.3 °C 12.6 °C 1020.3 hPa Calm     74% 0.0 mm 0 W/m2
01:20 17.3 °C 12.6 °C 1020.0 hPa Calm     74% 0.0 mm 0 W/m2
01:25 17.2 °C 12.5 °C 1020.0 hPa Calm     74% 0.0 mm 0 W/m2
01:30 17.2 °C 12.7 °C 1020.0 hPa Calm     75% 0.0 mm 0 W/m2
01:35 17.1 °C 12.6 °C 1020.0 hPa Calm     75% 0.0 mm 0 W/m2
01:40 17.1 °C 12.6 °C 1020.3 hPa Calm     75% 0.0 mm 0 W/m2
01:45 17.1 °C 12.6 °C 1020.3 hPa Calm     75% 0.0 mm 0 W/m2
01:50 17 °C 12.7 °C 1020.0 hPa Calm     76% 0.0 mm 0 W/m2
01:55 16.9 °C 12.6 °C 1020.3 hPa Calm     76% 0.0 mm 0 W/m2
02:00 16.9 °C 12.8 °C 1020.3 hPa Calm     77% 0.0 mm 0 W/m2
02:05 16.8 °C 12.7 °C 1020.0 hPa Calm     77% 0.0 mm 0 W/m2
02:10 16.8 °C 12.7 °C 1020.0 hPa Calm     77% 0.0 mm 0 W/m2
02:15 16.7 °C 12.6 °C 1020.0 hPa Calm     77% 0.0 mm 0 W/m2
02:20 16.7 °C 12.6 °C 1020.0 hPa Calm     77% 0.0 mm 0 W/m2
02:25 16.7 °C 12.6 °C 1020.0 hPa Calm     77% 0.0 mm 0 W/m2
02:30 16.6 °C 12.6 °C 1020.3 hPa Calm     77% 0.0 mm 0 W/m2
02:35 16.6 °C 12.4 °C 1020.0 hPa Calm     76% 0.0 mm 0 W/m2
02:40 16.6 °C 12.6 °C 1020.0 hPa Calm     77% 0.0 mm 0 W/m2
02:46 16.6 °C 12.6 °C 1020.0 hPa Calm     77% 0.0 mm 0 W/m2
02:51 16.5 °C 12.5 °C 1020.0 hPa Calm     77% 0.0 mm 0 W/m2
02:56 16.4 °C 12.2 °C 1020.0 hPa Calm     76% 0.0 mm 0 W/m2
03:01 16.4 °C 12.4 °C 1020.0 hPa Calm     77% 0.0 mm 0 W/m2
03:06 16.3 °C 12.3 °C 1020.0 hPa Calm     77% 0.0 mm 0 W/m2
03:11 16.3 °C 12.5 °C 1020.0 hPa Calm     78% 0.0 mm 0 W/m2
03:16 16.2 °C 12.4 °C 1020.0 hPa Calm     78% 0.0 mm 0 W/m2
03:21 16.3 °C 12.5 °C 1020.0 hPa Calm     78% 0.0 mm 0 W/m2
03:26 16.3 °C 12.5 °C 1020.0 hPa Calm     78% 0.0 mm 0 W/m2
03:31 16.2 °C 12.4 °C 1020.0 hPa Calm     78% 0.0 mm 0 W/m2
03:36 16.2 °C 12.4 °C 1020.0 hPa Calm     78% 0.0 mm 0 W/m2
03:41 16.1 °C 12.5 °C 1020.0 hPa Calm     79% 0.0 mm 0 W/m2
03:46 16.1 °C 12.5 °C 1020.0 hPa Calm     79% 0.0 mm 0 W/m2
03:51 15.9 °C 12.3 °C 1019.6 hPa Calm     79% 0.0 mm 0 W/m2
03:56 15.9 °C 12.5 °C 1019.6 hPa Calm     80% 0.0 mm 0 W/m2
04:01 15.8 °C 12.4 °C 1019.6 hPa Calm     80% 0.0 mm 0 W/m2
04:06 15.8 °C 12.4 °C 1019.6 hPa Calm     80% 0.0 mm 0 W/m2
04:11 15.7 °C 12.3 °C 1019.6 hPa Calm     80% 0.0 mm 0 W/m2
04:16 15.6 °C 12.4 °C 1019.6 hPa Calm     81% 0.0 mm 0 W/m2
04:21 15.6 °C 12.4 °C 1019.6 hPa Calm     81% 0.0 mm 0 W/m2
04:26 15.5 °C 12.3 °C 1019.6 hPa Calm     81% 0.0 mm 0 W/m2
04:31 15.5 °C 12.4 °C 1019.6 hPa Calm     82% 0.0 mm 0 W/m2
04:36 15.5 °C 12.3 °C 1019.6 hPa Calm     81% 0.0 mm 0 W/m2
04:41 15.4 °C 12.3 °C 1019.6 hPa Calm     82% 0.0 mm 0 W/m2
04:46 15.4 °C 12.3 °C 1019.6 hPa Calm     82% 0.0 mm 0 W/m2
04:51 15.3 °C 12.2 °C 1019.6 hPa Calm     82% 0.0 mm 0 W/m2
04:56 15.3 °C 12.2 °C 1019.6 hPa Calm     82% 0.0 mm 0 W/m2
05:01 15.2 °C 12.1 °C 1019.6 hPa Calm     82% 0.0 mm 0 W/m2
05:06 15.2 °C 12.1 °C 1019.6 hPa Calm     82% 0.0 mm 0 W/m2
05:11 15.1 °C 12 °C 1019.6 hPa Calm     82% 0.0 mm 0 W/m2
05:16 15 °C 12.1 °C 1019.6 hPa Calm     83% 0.0 mm 0 W/m2
05:21 15 °C 12.3 °C 1019.6 hPa Calm     84% 0.0 mm 0 W/m2
05:26 14.9 °C 12.2 °C 1019.6 hPa Calm     84% 0.0 mm 0 W/m2
05:31 14.9 °C 12.2 °C 1019.6 hPa Calm     84% 0.0 mm 0 W/m2
05:36 14.9 °C 12.2 °C 1019.6 hPa Calm     84% 0.0 mm 0 W/m2
05:41 14.8 °C 12.1 °C 1019.6 hPa Calm     84% 0.0 mm 0 W/m2
05:46 14.8 °C 12.1 °C 1019.6 hPa Calm     84% 0.0 mm 0 W/m2
05:51 14.8 °C 12.1 °C 1019.6 hPa Calm     84% 0.0 mm 0 W/m2
05:56 14.8 °C 12.1 °C 1019.6 hPa Calm     84% 0.0 mm 0 W/m2
06:01 14.8 °C 12.1 °C 1019.6 hPa Calm     84% 0.0 mm 0 W/m2
06:06 14.8 °C 12.1 °C 1019.6 hPa Calm     84% 0.0 mm 0 W/m2
06:11 14.7 °C 12 °C 1019.6 hPa Calm     84% 0.0 mm 0 W/m2
06:16 14.7 °C 12 °C 1019.6 hPa Calm     84% 0.0 mm 0 W/m2
06:21 14.7 °C 12.2 °C 1019.6 hPa Calm     85% 0.0 mm 0 W/m2
06:26 14.7 °C 12.2 °C 1019.6 hPa Calm     85% 0.0 mm 0 W/m2
06:31 14.7 °C 12.2 °C 1019.6 hPa Calm     85% 0.0 mm 0 W/m2
06:36 14.7 °C 12.2 °C 1019.6 hPa Calm     85% 0.0 mm 0 W/m2
06:41 14.7 °C 12.2 °C 1019.6 hPa Calm     85% 0.0 mm 0 W/m2
06:46 14.7 °C 12.2 °C 1019.6 hPa Calm     85% 0.0 mm 0 W/m2
06:51 14.8 °C 12.3 °C 1019.6 hPa Calm     85% 0.0 mm 0 W/m2
06:56 14.7 °C 12.2 °C 1019.6 hPa Calm     85% 0.0 mm 0 W/m2
07:01 14.7 °C 12.2 °C 1019.6 hPa Calm     85% 0.0 mm 0 W/m2
07:06 14.6 °C 12.1 °C 1019.6 hPa Calm     85% 0.0 mm 0 W/m2
07:11 14.6 °C 12.1 °C 1019.6 hPa Calm     85% 0.0 mm 0 W/m2
07:16 14.6 °C 12.3 °C 1019.6 hPa Calm     86% 0.0 mm 5 W/m2
07:21 14.6 °C 12.3 °C 1019.6 hPa Calm     86% 0.0 mm 7 W/m2
07:26 14.6 °C 12.3 °C 1019.6 hPa Calm     86% 0.0 mm 11 W/m2
07:32 14.7 °C 12.2 °C 1019.6 hPa Calm     85% 0.0 mm 12 W/m2
07:37 14.8 °C 12.3 °C 1019.6 hPa Calm     85% 0.0 mm 14 W/m2
07:42 14.8 °C 12.3 °C 1019.6 hPa Calm     85% 0.0 mm 16 W/m2
07:47 14.8 °C 12.3 °C 1019.6 hPa Calm     85% 0.0 mm 19 W/m2
07:52 14.8 °C 12.3 °C 1019.6 hPa Calm     85% 0.0 mm 19 W/m2
07:57 14.9 °C 12.4 °C 1019.6 hPa Calm     85% 0.0 mm 23 W/m2
08:02 14.8 °C 12.3 °C 1019.6 hPa Calm     85% 0.0 mm 25 W/m2
08:07 14.9 °C 12.6 °C 1019.6 hPa Calm     86% 0.0 mm 26 W/m2
08:12 14.9 °C 12.6 °C 1019.6 hPa Calm     86% 0.0 mm 28 W/m2
08:17 15 °C 12.5 °C 1019.6 hPa SW 1.4 km/h 1.6 km/h 85% 0.0 mm 30 W/m2
08:22 15.2 °C 12.7 °C 1019.6 hPa Calm     85% 0.0 mm 69 W/m2
08:27 15.3 °C 12.8 °C 1019.6 hPa Calm   3.2 km/h 85% 0.0 mm 90 W/m2
08:32 15.6 °C 12.9 °C 1019.6 hPa Calm     84% 0.0 mm 100 W/m2
08:37 15.8 °C 12.9 °C 1019.6 hPa NE 3.2 km/h 3.2 km/h 83% 0.0 mm 116 W/m2
08:42 16.1 °C 13 °C 1019.6 hPa Calm     82% 0.0 mm 128 W/m2
08:47 16.3 °C 13 °C 1020.0 hPa Calm   3.2 km/h 81% 0.0 mm 62 W/m2
08:52 16.6 °C 13.1 °C 1019.6 hPa ENE 1.4 km/h 3.2 km/h 80% 0.0 mm 37 W/m2
08:57 16.9 °C 13 °C 1019.6 hPa ENE 1.4 km/h 1.6 km/h 78% 0.0 mm 163 W/m2
09:03 17.2 °C 13.1 °C 1019.6 hPa Calm     77% 0.0 mm 181 W/m2
09:08 17.4 °C 12.9 °C 1020.0 hPa Calm     75% 0.0 mm 197 W/m2
09:13 17.7 °C 13.2 °C 1020.0 hPa Calm     75% 0.0 mm 197 W/m2
09:18 17.9 °C 13.2 °C 1020.0 hPa Calm     74% 0.0 mm 98 W/m2
09:23 18.2 °C 13.5 °C 1020.0 hPa Calm     74% 0.0 mm 42 W/m2
09:28 18.6 °C 13.5 °C 1020.0 hPa ESE 1.4 km/h 3.2 km/h 72% 0.0 mm 44 W/m2
09:33 18.9 °C 13.7 °C 1020.0 hPa Calm   1.6 km/h 72% 0.0 mm 44 W/m2
09:38 19.3 °C 13.9 °C 1020.0 hPa Calm   3.2 km/h 71% 0.0 mm 46 W/m2
09:43 19.6 °C 13.8 °C 1020.0 hPa Calm   4.8 km/h 69% 0.0 mm 47 W/m2
09:48 19.7 °C 14.1 °C 1020.0 hPa NE 1.4 km/h 3.2 km/h 70% 0.0 mm 46 W/m2
09:53 19.8 °C 13.9 °C 1020.0 hPa East 1.4 km/h 4.8 km/h 69% 0.0 mm 47 W/m2
09:58 20 °C 14.1 °C 1020.0 hPa ESE 3.2 km/h 4.8 km/h 69% 0.0 mm 47 W/m2
10:03 20.3 °C 14.2 °C 1020.0 hPa ENE 3.2 km/h 4.8 km/h 68% 0.0 mm 47 W/m2
10:08 20.4 °C 14.3 °C 1020.0 hPa ENE 1.4 km/h 1.6 km/h 68% 0.0 mm 47 W/m2
10:13 20.8 °C 14.4 °C 1020.0 hPa ENE 1.4 km/h 3.2 km/h 67% 0.0 mm 49 W/m2
10:18 21.1 °C 14.7 °C 1020.0 hPa ENE 1.4 km/h 3.2 km/h 67% 0.0 mm 49 W/m2
10:23 21.3 °C 14.5 °C 1020.0 hPa NE 4.7 km/h 4.8 km/h 65% 0.0 mm 49 W/m2
10:28 21.6 °C 14.7 °C 1020.0 hPa Calm   3.2 km/h 65% 0.0 mm 49 W/m2
10:33 21.8 °C 14.7 °C 1020.0 hPa NE 1.4 km/h 1.6 km/h 64% 0.0 mm 51 W/m2
10:38 22.1 °C 15 °C 1020.0 hPa NNW 3.2 km/h 4.8 km/h 64% 0.0 mm 51 W/m2
10:43 22.2 °C 15.1 °C 1020.0 hPa NE 4.7 km/h 4.8 km/h 64% 0.0 mm 51 W/m2
10:48 22.5 °C 15.1 °C 1020.0 hPa ENE 1.4 km/h 1.6 km/h 63% 0.0 mm 53 W/m2
10:54 22.8 °C 15.1 °C 1020.0 hPa East 4.7 km/h 4.8 km/h 62% 0.0 mm 53 W/m2
10:59 23.2 °C 15.5 °C 1020.0 hPa ESE 1.4 km/h 6.4 km/h 62% 0.0 mm 54 W/m2
11:04 23.3 °C 15.4 °C 1020.0 hPa East 1.4 km/h 3.2 km/h 61% 0.0 mm 56 W/m2
11:09 23.7 °C 15.5 °C 1020.0 hPa ESE 1.4 km/h 4.8 km/h 60% 0.0 mm 58 W/m2
11:14 23.9 °C 15.7 °C 1020.0 hPa Calm   3.2 km/h 60% 0.0 mm 60 W/m2
11:19 24.1 °C 15.6 °C 1020.0 hPa NE 3.2 km/h 6.4 km/h 59% 0.0 mm 62 W/m2
11:24 24.1 °C 15.6 °C 1020.0 hPa East 3.2 km/h 4.8 km/h 59% 0.0 mm 63 W/m2
11:29 24.3 °C 15.8 °C 1019.6 hPa ESE 6.4 km/h 6.4 km/h 59% 0.0 mm 65 W/m2
11:34 24.6 °C 15.8 °C 1019.6 hPa NW 1.4 km/h 1.6 km/h 58% 0.0 mm 67 W/m2
11:39 24.9 °C 16.1 °C 1020.0 hPa NNW 1.4 km/h 3.2 km/h 58% 0.0 mm 76 W/m2
11:44 25.3 °C 16.2 °C 1019.6 hPa East 3.2 km/h 3.2 km/h 57% 0.0 mm 410 W/m2
11:49 25.6 °C 16.2 °C 1019.6 hPa Calm   4.8 km/h 56% 0.0 mm 570 W/m2
11:54 25.8 °C 16.4 °C 1019.6 hPa East 4.7 km/h 6.4 km/h 56% 0.0 mm 577 W/m2
11:59 26.2 °C 16.4 °C 1019.6 hPa North 3.2 km/h 4.8 km/h 55% 0.0 mm 584 W/m2
12:04 26.4 °C 16.3 °C 1019.6 hPa NE 4.7 km/h 6.4 km/h 54% 0.0 mm 592 W/m2
12:09 26.7 °C 16.9 °C 1019.6 hPa Calm   3.2 km/h 55% 0.0 mm 599 W/m2
12:14 27.1 °C 16.7 °C 1019.3 hPa Calm   6.4 km/h 53% 0.0 mm 606 W/m2
12:19 27.4 °C 16.7 °C 1019.6 hPa ENE 4.7 km/h 4.8 km/h 52% 0.0 mm 613 W/m2
12:24 27.4 °C 16.4 °C 1019.3 hPa ENE 4.7 km/h 6.4 km/h 51% 0.0 mm 617 W/m2
12:29 27.6 °C 16.9 °C 1019.3 hPa ESE 3.2 km/h 6.4 km/h 52% 0.0 mm 624 W/m2
12:39 28.1 °C 17 °C 1019.3 hPa East 1.4 km/h 6.4 km/h 51% 0.0 mm 631 W/m2
12:44 28.6 °C 17.2 °C 1019.3 hPa ENE 4.7 km/h 8 km/h 50% 0.0 mm 636 W/m2
12:49 28.7 °C 16.9 °C 1019.3 hPa NE 1.4 km/h 6.4 km/h 49% 0.0 mm 640 W/m2
12:54 28.6 °C 16.8 °C 1019.3 hPa NE 1.4 km/h 6.4 km/h 49% 0.0 mm 643 W/m2
12:59 28.6 °C 16.8 °C 1019.0 hPa ENE 1.4 km/h 6.4 km/h 49% 0.0 mm 645 W/m2
13:04 28.9 °C 17.4 °C 1019.0 hPa East 7.9 km/h 8 km/h 50% 0.0 mm 647 W/m2
13:09 29.2 °C 17.1 °C 1019.0 hPa ENE 4.7 km/h 4.8 km/h 48% 0.0 mm 652 W/m2
13:14 29.4 °C 17.2 °C 1019.0 hPa ENE 7.9 km/h 8 km/h 48% 0.0 mm 652 W/m2
13:19 29.7 °C 17.2 °C 1019.0 hPa WNW 3.2 km/h 9.7 km/h 47% 0.0 mm 654 W/m2
13:24 29.8 °C 17.3 °C 1019.0 hPa NE 4.7 km/h 4.8 km/h 47% 0.0 mm 652 W/m2
13:29 29.9 °C 17 °C 1019.0 hPa NNE 1.4 km/h 6.4 km/h 46% 0.0 mm 654 W/m2
13:34 30.1 °C 17.5 °C 1019.0 hPa ESE 1.4 km/h 3.2 km/h 47% 0.0 mm 652 W/m2
13:39 30.4 °C 17.1 °C 1018.6 hPa NNE 1.4 km/h 4.8 km/h 45% 0.0 mm 652 W/m2
13:44 30.7 °C 17 °C 1018.6 hPa NE 1.4 km/h 6.4 km/h 44% 0.0 mm 652 W/m2
13:49 30.8 °C 17.1 °C 1018.6 hPa ENE 1.4 km/h 3.2 km/h 44% 0.0 mm 654 W/m2
13:54 31 °C 17.3 °C 1018.6 hPa NE 4.7 km/h 8 km/h 44% 0.0 mm 652 W/m2
13:59 31.1 °C 17 °C 1018.6 hPa NE 4.7 km/h 4.8 km/h 43% 0.0 mm 652 W/m2
14:04 31.2 °C 17.1 °C 1018.3 hPa ENE 3.2 km/h 4.8 km/h 43% 0.0 mm 649 W/m2
14:09 31.5 °C 17 °C 1018.3 hPa ENE 6.4 km/h 9.7 km/h 42% 0.0 mm 650 W/m2
14:14 31.6 °C 17.1 °C 1018.3 hPa NNE 1.4 km/h 4.8 km/h 42% 0.0 mm 643 W/m2
14:19 31.7 °C 17.2 °C 1018.3 hPa ESE 3.2 km/h 6.4 km/h 42% 0.0 mm 643 W/m2
14:24 31.9 °C 17.8 °C 1018.0 hPa ESE 1.4 km/h 4.8 km/h 43% 0.0 mm 640 W/m2
14:29 32.1 °C 17.2 °C 1018.0 hPa ENE 3.2 km/h 4.8 km/h 41% 0.0 mm 636 W/m2
14:34 32.2 °C 17.3 °C 1018.0 hPa East 1.4 km/h 4.8 km/h 41% 0.0 mm 635 W/m2
14:39 32.2 °C 17.3 °C 1018.0 hPa ESE 3.2 km/h 8 km/h 41% 0.0 mm 633 W/m2
14:44 32.2 °C 16.5 °C 1018.0 hPa NE 1.4 km/h 3.2 km/h 39% 0.0 mm 624 W/m2
14:49 32.1 °C 17.6 °C 1018.0 hPa East 4.7 km/h 4.8 km/h 42% 0.0 mm 624 W/m2
14:54 32.3 °C 16.6 °C 1018.0 hPa ESE 3.2 km/h 11.3 km/h 39% 0.0 mm 615 W/m2
14:59 32.4 °C 16.3 °C 1017.6 hPa Calm   3.2 km/h 38% 0.0 mm 610 W/m2
15:04 32.6 °C 16.8 °C 1017.6 hPa NE 4.7 km/h 9.7 km/h 39% 0.0 mm 605 W/m2
15:09 32.8 °C 16.6 °C 1017.6 hPa East 4.7 km/h 6.4 km/h 38% 0.0 mm 601 W/m2
15:14 32.8 °C 16.2 °C 1017.6 hPa North 1.4 km/h 4.8 km/h 37% 0.0 mm 599 W/m2
15:19 32.8 °C 16.2 °C 1017.6 hPa WNW 1.4 km/h 4.8 km/h 37% 0.0 mm 584 W/m2
15:24 32.8 °C 16.2 °C 1017.6 hPa WNW 4.7 km/h 4.8 km/h 37% 0.0 mm 580 W/m2
15:29 32.9 °C 16.3 °C 1017.3 hPa ESE 1.4 km/h 3.2 km/h 37% 0.0 mm 575 W/m2
15:34 33.1 °C 16.5 °C 1017.3 hPa East 3.2 km/h 4.8 km/h 37% 0.0 mm 571 W/m2
15:39 33.2 °C 16.1 °C 1017.3 hPa NNE 1.4 km/h 8 km/h 36% 0.0 mm 563 W/m2
15:44 33.3 °C 16.2 °C 1017.3 hPa Calm   4.8 km/h 36% 0.0 mm 550 W/m2
15:49 33.4 °C 16.7 °C 1017.3 hPa Calm   3.2 km/h 37% 0.0 mm 552 W/m2
15:54 33.4 °C 16.3 °C 1017.3 hPa West 1.4 km/h 3.2 km/h 36% 0.0 mm 534 W/m2
15:59 33.5 °C 16.8 °C 1016.9 hPa SSE 1.4 km/h 3.2 km/h 37% 0.0 mm 529 W/m2
16:04 33.6 °C 16.9 °C 1016.9 hPa Calm   1.6 km/h 37% 0.0 mm 508 W/m2
16:09 33.7 °C 16.6 °C 1016.9 hPa West 3.2 km/h 6.4 km/h 36% 0.0 mm 499 W/m2
16:14 33.6 °C 16.5 °C 1016.9 hPa West 1.4 km/h 1.6 km/h 36% 0.0 mm 496 W/m2
16:19 33.4 °C 15.8 °C 1016.9 hPa ESE 6.4 km/h 6.4 km/h 35% 0.0 mm 84 W/m2
16:24 33.1 °C 16 °C 1016.9 hPa SSE 1.4 km/h 4.8 km/h 36% 0.0 mm 496 W/m2
16:29 32.8 °C 16.6 °C 1016.9 hPa ENE 1.4 km/h 6.4 km/h 38% 0.0 mm 76 W/m2
16:34 32.4 °C 16.7 °C 1016.9 hPa Calm     39% 0.0 mm 81 W/m2
16:39 31.9 °C 16.6 °C 1016.9 hPa Calm   1.6 km/h 40% 0.0 mm 70 W/m2
16:44 31.6 °C 16.7 °C 1016.9 hPa Calm     41% 0.0 mm 69 W/m2
16:49 31.1 °C 17 °C 1016.9 hPa Calm   1.6 km/h 43% 0.0 mm 72 W/m2
16:54 30.7 °C 15.9 °C 1016.6 hPa Calm   3.2 km/h 41% 0.0 mm 98 W/m2
16:59 30.7 °C 15.5 °C 1016.6 hPa ENE 1.4 km/h 1.6 km/h 40% 0.0 mm 483 W/m2
17:04 31.1 °C 17 °C 1016.6 hPa Calm     43% 0.0 mm 478 W/m2
17:09 31.6 °C 16.4 °C 1016.6 hPa Calm   1.6 km/h 40% 0.0 mm 438 W/m2
17:14 32 °C 16.3 °C 1016.6 hPa Calm   3.2 km/h 39% 0.0 mm 403 W/m2
17:19 32.4 °C 16.7 °C 1016.6 hPa Calm   1.6 km/h 39% 0.0 mm 390 W/m2
17:24 32.7 °C 16.1 °C 1016.6 hPa East 1.4 km/h 1.6 km/h 37% 0.0 mm 374 W/m2
17:29 32.8 °C 15.8 °C 1016.6 hPa East 3.2 km/h 3.2 km/h 36% 0.0 mm 362 W/m2
17:34 32.9 °C 15.4 °C 1016.6 hPa SE 1.4 km/h 3.2 km/h 35% 0.0 mm 74 W/m2
17:39 32.9 °C 16.7 °C 1016.3 hPa Calm     38% 0.0 mm 308 W/m2
17:44 32.8 °C 16.6 °C 1016.3 hPa Calm   3.2 km/h 38% 0.0 mm 288 W/m2
17:50 32.7 °C 16.1 °C 1016.3 hPa Calm     37% 0.0 mm 267 W/m2
17:55 32.6 °C 15.6 °C 1016.3 hPa Calm   3.2 km/h 36% 0.0 mm 172 W/m2
18:00 32.5 °C 16.8 °C 1016.3 hPa Calm   1.6 km/h 39% 0.0 mm 167 W/m2
18:05 32.3 °C 17 °C 1016.3 hPa SSW 1.4 km/h 1.6 km/h 40% 0.0 mm 225 W/m2
18:10 32.2 °C 16.9 °C 1016.3 hPa SSW 1.4 km/h 1.6 km/h 40% 0.0 mm 200 W/m2
18:15 31.9 °C 16.6 °C 1016.3 hPa SSW 1.4 km/h 1.6 km/h 40% 0.0 mm 62 W/m2
18:20 31.4 °C 16.6 °C 1016.3 hPa Calm   1.6 km/h 41% 0.0 mm 54 W/m2
18:25 31 °C 16.6 °C 1016.3 hPa SSW 1.4 km/h 1.6 km/h 42% 0.0 mm 44 W/m2
18:30 30.6 °C 16.6 °C 1016.3 hPa Calm   1.6 km/h 43% 0.0 mm 42 W/m2
18:35 30.1 °C 16.1 °C 1016.3 hPa SSW 1.4 km/h 1.6 km/h 43% 0.0 mm 39 W/m2
18:41 29.6 °C 16.4 °C 1016.3 hPa SSW 1.4 km/h 3.2 km/h 45% 0.0 mm 40 W/m2
18:46 29.2 °C 16.4 °C 1016.3 hPa SSW 1.4 km/h 3.2 km/h 46% 0.0 mm 30 W/m2
18:51 28.8 °C 16.4 °C 1016.3 hPa SSW 1.4 km/h 1.6 km/h 47% 0.0 mm 26 W/m2
18:56 28.6 °C 16.2 °C 1016.3 hPa SSW 1.4 km/h 3.2 km/h 47% 0.0 mm 25 W/m2
19:01 28.2 °C 15.8 °C 1016.3 hPa SSW 1.4 km/h 1.6 km/h 47% 0.0 mm 23 W/m2
19:06 28 °C 16 °C 1016.3 hPa SSW 1.4 km/h 1.6 km/h 48% 0.0 mm 21 W/m2
19:11 27.7 °C 15.7 °C 1016.3 hPa SSW 1.4 km/h 3.2 km/h 48% 0.0 mm 21 W/m2
19:16 27.5 °C 15.5 °C 1016.3 hPa Calm     48% 0.0 mm 19 W/m2
19:21 27.3 °C 15.6 °C 1016.3 hPa Calm   1.6 km/h 49% 0.0 mm 18 W/m2
19:26 27.1 °C 15.8 °C 1016.3 hPa Calm   1.6 km/h 50% 0.0 mm 14 W/m2
19:32 26.8 °C 15.5 °C 1016.3 hPa Calm   1.6 km/h 50% 0.0 mm 11 W/m2
19:37 26.6 °C 15.3 °C 1016.3 hPa Calm     50% 0.0 mm 9 W/m2
19:42 26.4 °C 15.1 °C 1016.3 hPa Calm   1.6 km/h 50% 0.0 mm 5 W/m2
19:47 26.2 °C 15.3 °C 1016.3 hPa Calm     51% 0.0 mm 0 W/m2
19:52 26.1 °C 15.2 °C 1016.3 hPa Calm     51% 0.0 mm 0 W/m2
19:57 25.8 °C 14.9 °C 1016.3 hPa Calm     51% 0.0 mm 0 W/m2
20:02 25.7 °C 15.1 °C 1016.3 hPa Calm     52% 0.0 mm 0 W/m2
20:07 25.5 °C 15.2 °C 1016.3 hPa Calm     53% 0.0 mm 0 W/m2
20:12 25.3 °C 15 °C 1016.3 hPa Calm     53% 0.0 mm 0 W/m2
20:17 25.2 °C 14.9 °C 1016.6 hPa Calm     53% 0.0 mm 0 W/m2
20:22 25.1 °C 15.1 °C 1016.6 hPa Calm     54% 0.0 mm 0 W/m2
20:27 24.9 °C 15.2 °C 1016.6 hPa Calm     55% 0.0 mm 0 W/m2
20:32 24.8 °C 15.1 °C 1016.6 hPa Calm     55% 0.0 mm 0 W/m2
20:37 24.7 °C 15.3 °C 1016.6 hPa Calm     56% 0.0 mm 0 W/m2
20:43 24.6 °C 15.2 °C 1016.6 hPa Calm     56% 0.0 mm 0 W/m2
20:48 24.4 °C 15.1 °C 1016.9 hPa Calm     56% 0.0 mm 0 W/m2
20:53 24.3 °C 15.2 °C 1016.6 hPa Calm     57% 0.0 mm 0 W/m2
20:58 24.2 °C 15.1 °C 1016.6 hPa Calm     57% 0.0 mm 0 W/m2
21:03 24 °C 15.2 °C 1016.9 hPa Calm     58% 0.0 mm 0 W/m2
21:08 23.8 °C 15 °C 1016.9 hPa Calm     58% 0.0 mm 0 W/m2
21:13 23.7 °C 15.2 °C 1016.9 hPa Calm     59% 0.0 mm 0 W/m2
21:18 23.5 °C 15 °C 1016.9 hPa Calm     59% 0.0 mm 0 W/m2
21:23 23.3 °C 15.1 °C 1016.9 hPa Calm     60% 0.0 mm 0 W/m2
21:28 23.2 °C 15 °C 1016.9 hPa Calm     60% 0.0 mm 0 W/m2
21:33 23.2 °C 15 °C 1016.9 hPa Calm     60% 0.0 mm 0 W/m2
21:38 23.1 °C 15.2 °C 1016.9 hPa Calm     61% 0.0 mm 0 W/m2
21:43 23 °C 15.1 °C 1016.9 hPa Calm     61% 0.0 mm 0 W/m2
21:48 22.8 °C 15.1 °C 1016.9 hPa Calm     62% 0.0 mm 0 W/m2
21:53 22.7 °C 15 °C 1016.9 hPa Calm     62% 0.0 mm 0 W/m2
21:58 22.6 °C 15.2 °C 1016.9 hPa Calm     63% 0.0 mm 0 W/m2
22:03 22.4 °C 15 °C 1017.3 hPa Calm     63% 0.0 mm 0 W/m2
22:08 22.3 °C 14.9 °C 1016.9 hPa Calm     63% 0.0 mm 0 W/m2
22:13 22.2 °C 15.1 °C 1017.3 hPa Calm     64% 0.0 mm 0 W/m2
22:18 22.1 °C 15 °C 1017.3 hPa Calm     64% 0.0 mm 0 W/m2
22:23 21.9 °C 14.8 °C 1016.9 hPa Calm     64% 0.0 mm 0 W/m2
22:28 21.9 °C 14.8 °C 1017.3 hPa Calm     64% 0.0 mm 0 W/m2
22:33 21.8 °C 14.7 °C 1016.9 hPa Calm     64% 0.0 mm 0 W/m2
22:38 21.8 °C 14.7 °C 1016.9 hPa Calm     64% 0.0 mm 0 W/m2
22:43 21.8 °C 14.7 °C 1016.9 hPa Calm     64% 0.0 mm 0 W/m2
22:48 21.7 °C 14.6 °C 1017.3 hPa Calm     64% 0.0 mm 0 W/m2
22:53 21.7 °C 14.6 °C 1017.3 hPa Calm     64% 0.0 mm 0 W/m2
22:58 21.6 °C 14.7 °C 1017.3 hPa Calm     65% 0.0 mm 0 W/m2
23:03 21.4 °C 14.5 °C 1017.3 hPa Calm     65% 0.0 mm 0 W/m2
23:08 21.3 °C 14.5 °C 1016.9 hPa Calm     65% 0.0 mm 0 W/m2
23:13 21.2 °C 14.6 °C 1017.3 hPa SSW 1.4 km/h 1.6 km/h 66% 0.0 mm 0 W/m2
23:18 21.2 °C 14.6 °C 1017.3 hPa Calm     66% 0.0 mm 0 W/m2
23:23 21.1 °C 14.7 °C 1017.3 hPa Calm     67% 0.0 mm 0 W/m2
23:28 21.1 °C 14.7 °C 1017.3 hPa Calm     67% 0.0 mm 0 W/m2
23:33 21.1 °C 14.7 °C 1017.3 hPa Calm     67% 0.0 mm 0 W/m2
23:39 21.1 °C 14.7 °C 1017.3 hPa Calm     67% 0.0 mm 0 W/m2
23:44 21.1 °C 14.7 °C 1017.3 hPa Calm     67% 0.0 mm 0 W/m2
23:49 21.2 °C 14.8 °C 1017.3 hPa Calm   1.6 km/h 67% 0.0 mm 0 W/m2
23:54 21.2 °C 14.8 °C 1017.3 hPa SSW 3.2 km/h 3.2 km/h 67% 0.0 mm 0 W/m2
23:59 21.1 °C 14.7 °C 1017.3 hPa WSW 3.2 km/h 3.2 km/h 67% 0.0 mm 0 W/m2
Juneau County Weather
Compliments of Weather Underground - 4 mb